createdAt,value
2022-11-29T00:01:37.148Z,79.03
2022-11-29T00:04:04.878Z,78.60
2022-11-29T00:06:34.941Z,78.64
2022-11-29T00:09:06.631Z,78.79
2022-11-29T00:11:54.754Z,79.03
2022-11-29T00:14:23.280Z,78.63
2022-11-29T00:16:56.678Z,78.35
2022-11-29T00:19:24.045Z,78.41
2022-11-29T00:21:51.448Z,78.00
2022-11-29T00:24:18.963Z,77.86
2022-11-29T00:26:46.292Z,78.12
2022-11-29T00:29:13.902Z,77.93
2022-11-29T00:31:41.638Z,78.40
2022-11-29T00:34:11.045Z,78.63
2022-11-29T00:36:38.978Z,78.93
2022-11-29T00:39:06.827Z,78.62
2022-11-29T00:41:34.240Z,78.68
2022-11-29T00:44:01.516Z,78.80
2022-11-29T00:46:28.736Z,78.75
2022-11-29T00:48:55.990Z,78.52
2022-11-29T00:51:23.043Z,78.67
2022-11-29T00:53:50.378Z,78.40
2022-11-29T00:56:17.575Z,78.47
2022-11-29T00:58:44.812Z,78.54
2022-11-29T01:01:12.181Z,78.78
2022-11-29T01:03:39.946Z,78.83
2022-11-29T01:06:11.794Z,78.61
2022-11-29T01:08:39.472Z,78.53
2022-11-29T01:11:15.898Z,78.27
2022-11-29T01:13:44.926Z,78.46
2022-11-29T01:16:13.326Z,78.51
2022-11-29T01:18:40.541Z,78.45
2022-11-29T01:21:13.562Z,78.46
2022-11-29T01:23:41.581Z,78.44
2022-11-29T01:26:12.194Z,78.54
2022-11-29T01:28:41.102Z,78.84
2022-11-29T01:31:14.664Z,78.84
2022-11-29T01:33:42.517Z,78.74
2022-11-29T01:36:12.311Z,78.86
2022-11-29T01:38:39.833Z,78.73
2022-11-29T01:41:11.224Z,78.43
2022-11-29T01:44:01.566Z,78.46
2022-11-29T01:46:34.918Z,78.54
2022-11-29T01:49:05.588Z,78.01
2022-11-29T01:51:34.903Z,77.38
2022-11-29T01:54:02.731Z,77.33
2022-11-29T01:56:32.927Z,76.96
2022-11-29T01:59:06.112Z,76.79
2022-11-29T02:01:35.011Z,76.97
2022-11-29T02:04:02.315Z,76.98
2022-11-29T02:06:30.374Z,76.90
2022-11-29T02:08:57.552Z,76.65
2022-11-29T02:11:54.116Z,77.10
2022-11-29T02:14:28.137Z,77.08
2022-11-29T02:17:32.460Z,77.27
2022-11-29T02:20:32.412Z,77.65
2022-11-29T02:23:02.491Z,77.84
2022-11-29T02:26:03.750Z,77.88
2022-11-29T02:29:25.099Z,78.52
2022-11-29T02:31:52.255Z,78.58
2022-11-29T02:34:41.020Z,78.62
2022-11-29T02:37:28.457Z,79.21
2022-11-29T02:40:24.062Z,79.37
2022-11-29T02:43:03.345Z,79.32
2022-11-29T02:45:49.174Z,78.87
2022-11-29T02:48:25.590Z,78.75
2022-11-29T02:51:14.598Z,78.90
2022-11-29T02:53:55.520Z,78.20
2022-11-29T02:56:45.446Z,78.00
2022-11-29T02:59:48.886Z,77.96
2022-11-29T03:02:34.755Z,77.52
2022-11-29T03:05:16.711Z,77.19
2022-11-29T03:07:56.092Z,77.11
2022-11-29T03:10:29.273Z,76.86
2022-11-29T03:12:57.547Z,76.94
2022-11-29T03:15:37.198Z,77.09
2022-11-29T03:18:06.957Z,76.68
2022-11-29T03:20:45.917Z,76.02
2022-11-29T03:23:28.216Z,75.83
2022-11-29T03:26:13.715Z,75.29
2022-11-29T03:28:43.624Z,74.82
2022-11-29T03:31:27.435Z,75.19
2022-11-29T03:34:13.407Z,74.32
2022-11-29T03:37:07.339Z,74.15
2022-11-29T03:39:42.864Z,74.20
2022-11-29T03:42:21.999Z,74.16
2022-11-29T03:45:22.101Z,74.10
2022-11-29T03:48:03.636Z,74.36
2022-11-29T03:50:39.439Z,74.05
2022-11-29T03:53:34.603Z,74.50
2022-11-29T03:56:05.362Z,74.70
2022-11-29T03:58:47.786Z,74.29
2022-11-29T04:01:39.174Z,74.19
2022-11-29T04:04:19.796Z,74.02
2022-11-29T04:06:56.031Z,73.65
2022-11-29T04:09:23.269Z,73.13
2022-11-29T04:12:09.217Z,73.37
2022-11-29T04:14:48.287Z,73.27
2022-11-29T04:17:27.190Z,73.88
2022-11-29T04:20:18.186Z,74.70
2022-11-29T04:23:03.413Z,76.28
2022-11-29T04:25:33.226Z,76.95
2022-11-29T04:28:31.242Z,78.48
2022-11-29T04:31:38.618Z,79.66
2022-11-29T04:34:18.712Z,81.36
2022-11-29T04:37:16.967Z,82.44
2022-11-29T04:39:59.467Z,84.06
2022-11-29T04:42:55.056Z,85.68
2022-11-29T04:45:46.281Z,86.39
2022-11-29T04:48:40.435Z,88.77
2022-11-29T04:51:41.531Z,89.84
2022-11-29T04:54:35.912Z,91.71
2022-11-29T04:57:26.082Z,93.86
2022-11-29T04:59:59.141Z,94.61
2022-11-29T05:02:47.658Z,95.60
2022-11-29T05:05:33.255Z,96.46
2022-11-29T05:08:24.938Z,97.83
2022-11-29T05:11:27.057Z,98.98
2022-11-29T05:14:21.969Z,100.00
2022-11-29T05:17:25.696Z,100.00
2022-11-29T05:20:13.319Z,100.00
2022-11-29T05:22:53.178Z,100.00
2022-11-29T05:25:45.316Z,100.00
2022-11-29T05:28:36.552Z,100.00
2022-11-29T05:31:03.739Z,100.00
2022-11-29T05:33:42.838Z,100.00
2022-11-29T05:36:28.763Z,100.00
2022-11-29T05:39:00.832Z,100.00
2022-11-29T05:41:47.739Z,100.00
2022-11-29T05:44:25.630Z,100.00
2022-11-29T05:47:01.899Z,100.00
2022-11-29T05:50:03.010Z,100.00
2022-11-29T05:52:49.819Z,100.00
2022-11-29T05:55:37.850Z,100.00
2022-11-29T05:58:20.079Z,100.00
2022-11-29T06:00:59.935Z,100.00
2022-11-29T06:03:33.025Z,100.00
2022-11-29T06:06:15.795Z,100.00
2022-11-29T06:09:40.169Z,100.00
2022-11-29T06:12:20.659Z,100.00
2022-11-29T06:14:55.714Z,100.00
2022-11-29T06:17:53.115Z,100.00
2022-11-29T06:20:38.722Z,100.00
2022-11-29T06:23:45.082Z,100.00
2022-11-29T06:26:17.117Z,100.00
2022-11-29T06:29:19.454Z,100.00
2022-11-29T06:32:15.758Z,100.00
2022-11-29T06:34:55.093Z,100.00
2022-11-29T06:37:39.954Z,100.00
2022-11-29T06:40:11.157Z,100.00
2022-11-29T06:42:38.476Z,100.00
2022-11-29T06:45:06.975Z,100.00
2022-11-29T06:47:53.299Z,100.00
2022-11-29T06:50:39.188Z,100.00
2022-11-29T06:53:32.487Z,100.00
2022-11-29T06:56:03.543Z,100.00
2022-11-29T06:58:38.617Z,100.00
2022-11-29T07:01:40.150Z,100.00
2022-11-29T07:04:46.289Z,100.00
2022-11-29T07:07:18.874Z,100.00
2022-11-29T07:09:49.629Z,100.00
2022-11-29T07:12:20.960Z,100.00
2022-11-29T07:14:48.818Z,100.00
2022-11-29T07:17:20.768Z,100.00
2022-11-29T07:20:23.827Z,100.00
2022-11-29T07:23:00.206Z,100.00
2022-11-29T07:26:01.722Z,100.00
2022-11-29T07:28:43.439Z,100.00
2022-11-29T07:31:44.910Z,100.00
2022-11-29T07:34:25.625Z,100.00
2022-11-29T07:37:22.112Z,100.00
2022-11-29T07:40:12.581Z,100.00
2022-11-29T07:42:50.079Z,100.00
2022-11-29T07:45:32.031Z,100.00
2022-11-29T07:47:59.732Z,100.00
2022-11-29T07:50:28.896Z,100.00
2022-11-29T07:52:57.055Z,100.00
2022-11-29T07:55:26.286Z,100.00
2022-11-29T07:57:53.973Z,100.00
2022-11-29T08:00:21.610Z,100.00
2022-11-29T08:02:50.278Z,100.00
2022-11-29T08:05:18.440Z,100.00
2022-11-29T08:07:47.493Z,100.00
2022-11-29T08:10:16.495Z,100.00
2022-11-29T08:12:46.150Z,100.00
2022-11-29T08:15:19.350Z,100.00
2022-11-29T08:17:46.953Z,100.00
2022-11-29T08:20:16.718Z,100.00
2022-11-29T08:22:44.198Z,100.00
2022-11-29T08:25:11.908Z,100.00
2022-11-29T08:27:40.593Z,100.00
2022-11-29T08:30:08.762Z,100.00
2022-11-29T08:32:35.946Z,100.00
2022-11-29T08:35:03.862Z,100.00
2022-11-29T08:37:31.966Z,100.00
2022-11-29T08:40:04.844Z,100.00
2022-11-29T08:42:32.266Z,100.00
2022-11-29T08:44:59.888Z,100.00
2022-11-29T08:47:39.116Z,100.00
2022-11-29T08:50:16.054Z,100.00
2022-11-29T08:53:06.969Z,100.00
2022-11-29T08:55:38.014Z,100.00
2022-11-29T08:58:32.879Z,100.00
2022-11-29T09:01:06.608Z,100.00
2022-11-29T09:03:53.802Z,100.00
2022-11-29T09:06:21.420Z,100.00
2022-11-29T09:08:48.762Z,100.00
2022-11-29T09:11:26.687Z,100.00
2022-11-29T09:14:08.182Z,0.00
2022-11-29T09:16:38.067Z,100.00
2022-11-29T09:19:06.068Z,100.00
2022-11-29T09:21:36.769Z,100.00
2022-11-29T09:24:06.720Z,100.00
2022-11-29T09:26:37.069Z,100.00
2022-11-29T09:29:06.706Z,100.00
2022-11-29T09:31:35.297Z,100.00
2022-11-29T09:34:03.137Z,100.00
2022-11-29T09:36:31.460Z,100.00
2022-11-29T09:39:02.909Z,100.00
2022-11-29T09:41:33.300Z,100.00
2022-11-29T09:44:22.503Z,100.00
2022-11-29T09:47:00.624Z,100.00
2022-11-29T09:49:48.903Z,100.00
2022-11-29T09:52:47.100Z,100.00
2022-11-29T09:55:36.973Z,100.00
2022-11-29T09:58:10.867Z,100.00
2022-11-29T10:00:47.634Z,100.00
2022-11-29T10:03:29.921Z,100.00
2022-11-29T10:06:12.011Z,100.00
2022-11-29T10:09:04.393Z,100.00
2022-11-29T10:11:44.007Z,100.00
2022-11-29T10:14:22.672Z,100.00
2022-11-29T10:17:04.260Z,100.00
2022-11-29T10:19:44.835Z,100.00
2022-11-29T10:22:26.666Z,100.00
2022-11-29T10:24:59.479Z,99.52
2022-11-29T10:27:29.908Z,99.11
2022-11-29T10:30:01.164Z,99.33
2022-11-29T10:32:32.412Z,99.55
2022-11-29T10:35:01.123Z,99.26
2022-11-29T10:37:32.944Z,98.54
2022-11-29T10:40:04.740Z,98.81
2022-11-29T10:42:52.633Z,97.74
2022-11-29T10:45:28.519Z,97.83
2022-11-29T10:48:02.335Z,97.79
2022-11-29T10:50:32.183Z,98.44
2022-11-29T10:53:10.220Z,97.60
2022-11-29T10:55:49.973Z,96.03
2022-11-29T10:58:28.322Z,96.06
2022-11-29T11:00:59.702Z,95.44
2022-11-29T11:03:38.043Z,95.48
2022-11-29T11:06:13.345Z,94.85
2022-11-29T11:08:53.262Z,92.15
2022-11-29T11:11:32.367Z,89.21
2022-11-29T11:14:07.236Z,87.40
2022-11-29T11:16:37.628Z,87.24
2022-11-29T11:19:40.528Z,81.38
2022-11-29T11:22:10.811Z,81.85
2022-11-29T11:24:42.363Z,81.54
2022-11-29T11:27:09.921Z,80.62
2022-11-29T11:29:44.773Z,76.88
2022-11-29T11:32:19.871Z,74.97
2022-11-29T11:34:58.428Z,72.66
2022-11-29T11:37:33.513Z,73.29
2022-11-29T11:40:26.687Z,74.03
2022-11-29T11:42:54.348Z,72.62
2022-11-29T11:45:54.515Z,71.23
2022-11-29T11:48:22.506Z,70.62
2022-11-29T11:50:56.664Z,69.52
2022-11-29T11:53:36.867Z,68.72
2022-11-29T11:56:10.781Z,69.57
2022-11-29T11:58:43.631Z,68.24
2022-11-29T12:01:17.648Z,65.08
2022-11-29T12:04:10.415Z,64.11
2022-11-29T12:06:43.332Z,65.88
2022-11-29T12:09:46.476Z,65.46
2022-11-29T12:12:26.068Z,66.83
2022-11-29T12:14:53.313Z,67.77
2022-11-29T12:17:41.853Z,66.78
2022-11-29T12:20:18.157Z,65.04
2022-11-29T12:23:12.747Z,64.55
2022-11-29T12:26:19.251Z,65.04
2022-11-29T12:28:51.663Z,66.04
2022-11-29T12:31:30.812Z,66.32
2022-11-29T12:34:21.005Z,65.95
2022-11-29T12:37:11.850Z,65.60
2022-11-29T12:40:03.627Z,65.63
2022-11-29T12:42:48.868Z,63.83
2022-11-29T12:45:21.688Z,64.59
2022-11-29T12:48:10.419Z,66.41
2022-11-29T12:51:19.246Z,67.02
2022-11-29T12:54:05.097Z,68.44
2022-11-29T12:57:15.209Z,67.53
2022-11-29T13:00:10.546Z,68.65
2022-11-29T13:03:03.496Z,69.02
2022-11-29T13:05:45.456Z,67.20
2022-11-29T13:08:21.006Z,66.86
2022-11-29T13:11:07.341Z,67.07
2022-11-29T13:13:37.430Z,67.10
2022-11-29T13:16:31.487Z,67.65
2022-11-29T13:19:36.207Z,67.17
2022-11-29T13:22:22.401Z,67.13
2022-11-29T13:24:57.972Z,67.06
2022-11-29T13:27:31.719Z,68.03
2022-11-29T13:30:01.103Z,68.05
2022-11-29T13:32:40.212Z,68.43
2022-11-29T13:35:20.791Z,68.60
2022-11-29T13:38:29.268Z,69.14
2022-11-29T13:41:13.257Z,68.93
2022-11-29T13:43:48.826Z,68.53
2022-11-29T13:46:28.194Z,68.63
2022-11-29T13:48:55.766Z,68.79
2022-11-29T13:51:22.917Z,69.84
2022-11-29T13:53:50.638Z,69.76
2022-11-29T13:56:43.363Z,69.51
2022-11-29T13:59:18.948Z,68.82
2022-11-29T14:01:50.585Z,69.29
2022-11-29T14:04:27.670Z,69.87
2022-11-29T14:07:14.876Z,69.83
2022-11-29T14:09:59.464Z,69.78
2022-11-29T14:12:54.523Z,69.55
2022-11-29T14:15:32.266Z,68.96
2022-11-29T14:18:00.330Z,68.77
2022-11-29T14:20:28.708Z,68.84
2022-11-29T14:23:05.002Z,69.10
2022-11-29T14:25:51.535Z,70.20
2022-11-29T14:28:22.632Z,70.22
2022-11-29T14:30:52.898Z,71.22
2022-11-29T14:33:35.936Z,71.63
2022-11-29T14:36:15.177Z,71.70
2022-11-29T14:38:55.078Z,71.74
2022-11-29T14:41:37.506Z,70.90
2022-11-29T14:44:22.651Z,71.07
2022-11-29T14:47:04.281Z,72.10
2022-11-29T14:49:39.112Z,72.80
2022-11-29T14:52:28.960Z,72.94
2022-11-29T14:55:09.326Z,73.33
2022-11-29T14:57:51.615Z,73.33
2022-11-29T15:00:27.946Z,72.31
2022-11-29T15:03:17.957Z,73.15
2022-11-29T15:05:49.250Z,74.21
2022-11-29T15:08:38.460Z,74.43
2022-11-29T15:11:13.937Z,75.38
2022-11-29T15:14:11.837Z,74.75
2022-11-29T15:17:13.112Z,74.85
2022-11-29T15:20:19.502Z,75.68
2022-11-29T15:22:54.625Z,76.47
2022-11-29T15:25:28.659Z,75.97
2022-11-29T15:28:04.089Z,76.59
2022-11-29T15:30:40.139Z,76.11
2022-11-29T15:33:28.583Z,75.59
2022-11-29T15:36:05.852Z,76.26
2022-11-29T15:38:52.351Z,77.05
2022-11-29T15:41:31.724Z,77.08
2022-11-29T15:44:03.619Z,78.30
2022-11-29T15:46:34.037Z,79.20
2022-11-29T15:49:25.276Z,79.63
2022-11-29T15:52:02.201Z,79.82
2022-11-29T15:54:33.520Z,80.14
2022-11-29T15:57:06.641Z,80.55
2022-11-29T15:59:51.857Z,81.11
2022-11-29T16:02:24.394Z,80.80
2022-11-29T16:04:56.335Z,81.37
2022-11-29T16:07:26.057Z,81.75
2022-11-29T16:10:04.858Z,82.27
2022-11-29T16:12:32.734Z,82.35
2022-11-29T16:15:01.459Z,83.09
2022-11-29T16:17:31.855Z,83.30
2022-11-29T16:20:14.031Z,83.50
2022-11-29T16:22:41.292Z,83.55
2022-11-29T16:25:19.193Z,83.81
2022-11-29T16:27:47.838Z,83.70
2022-11-29T16:30:23.530Z,83.96
2022-11-29T16:33:03.757Z,84.69
2022-11-29T16:35:34.214Z,84.51
2022-11-29T16:38:04.780Z,84.88
2022-11-29T16:40:34.705Z,85.09
2022-11-29T16:43:04.935Z,85.74
2022-11-29T16:45:42.931Z,86.24
2022-11-29T16:48:28.091Z,86.65
2022-11-29T16:51:10.415Z,87.33
2022-11-29T16:53:39.769Z,87.68
2022-11-29T16:56:11.415Z,87.56
2022-11-29T16:59:24.709Z,87.67
2022-11-29T17:01:31.586Z,88.02
2022-11-29T17:04:00.246Z,88.49
2022-11-29T17:06:29.179Z,88.27
2022-11-29T17:08:58.111Z,88.67
2022-11-29T17:11:26.707Z,88.48
2022-11-29T17:13:54.631Z,88.50
2022-11-29T17:16:24.585Z,88.67
2022-11-29T17:18:55.100Z,88.76
2022-11-29T17:21:27.675Z,87.79
2022-11-29T17:23:54.870Z,87.45
2022-11-29T17:26:22.947Z,87.42
2022-11-29T17:28:52.437Z,86.73
2022-11-29T17:31:21.917Z,86.16
2022-11-29T17:33:49.401Z,86.17
2022-11-29T17:36:19.713Z,86.39
2022-11-29T17:38:48.750Z,86.09
2022-11-29T17:41:22.964Z,85.54
2022-11-29T17:43:55.417Z,85.42
2022-11-29T17:46:32.076Z,85.25
2022-11-29T17:49:01.420Z,85.04
2022-11-29T17:51:51.027Z,85.00
2022-11-29T17:54:18.048Z,85.22
2022-11-29T17:56:45.709Z,84.89
2022-11-29T17:59:13.564Z,85.36
2022-11-29T18:01:41.451Z,85.05
2022-11-29T18:04:09.067Z,85.05
2022-11-29T18:06:39.480Z,84.82
2022-11-29T18:09:09.186Z,84.57
2022-11-29T18:11:48.068Z,83.96
2022-11-29T18:14:24.204Z,83.37
2022-11-29T18:16:53.346Z,83.19
2022-11-29T18:19:23.363Z,83.55
2022-11-29T18:21:51.717Z,83.73
2022-11-29T18:24:21.537Z,83.95
2022-11-29T18:26:49.415Z,84.65
2022-11-29T18:29:17.248Z,85.05
2022-11-29T18:31:46.923Z,86.22
2022-11-29T18:34:16.339Z,87.12
2022-11-29T18:36:46.655Z,88.46
2022-11-29T18:39:17.744Z,90.11
2022-11-29T18:41:47.779Z,90.29
2022-11-29T18:44:16.689Z,91.28
2022-11-29T18:46:45.251Z,91.95
2022-11-29T18:49:14.930Z,92.70
2022-11-29T18:51:45.253Z,94.32
2022-11-29T18:54:13.530Z,95.46
2022-11-29T18:56:41.439Z,96.74
2022-11-29T18:59:13.146Z,97.96
2022-11-29T19:01:42.921Z,98.94
2022-11-29T19:04:13.498Z,100.00
2022-11-29T19:06:43.963Z,100.00
2022-11-29T19:09:23.546Z,100.00
2022-11-29T19:11:51.491Z,100.00
2022-11-29T19:14:19.648Z,100.00
2022-11-29T19:16:48.830Z,100.00
2022-11-29T19:19:16.120Z,100.00
2022-11-29T19:21:43.346Z,100.00
2022-11-29T19:24:15.278Z,100.00
2022-11-29T19:26:45.589Z,100.00
2022-11-29T19:29:16.471Z,100.00
2022-11-29T19:31:43.953Z,100.00
2022-11-29T19:34:11.454Z,100.00
2022-11-29T19:36:43.875Z,100.00
2022-11-29T19:39:14.391Z,100.00
2022-11-29T19:41:43.973Z,100.00
2022-11-29T19:44:11.731Z,100.00
2022-11-29T19:46:42.092Z,100.00
2022-11-29T19:49:10.328Z,100.00
2022-11-29T19:51:38.411Z,100.00
2022-11-29T19:54:08.107Z,100.00
2022-11-29T19:56:35.685Z,100.00
2022-11-29T19:59:03.292Z,100.00
2022-11-29T20:01:39.316Z,100.00
2022-11-29T20:04:07.954Z,100.00
2022-11-29T20:06:35.568Z,100.00
2022-11-29T20:09:03.497Z,100.00
2022-11-29T20:11:30.618Z,100.00
2022-11-29T20:14:00.647Z,100.00
2022-11-29T20:16:30.019Z,100.00
2022-11-29T20:18:58.509Z,100.00
2022-11-29T20:21:31.575Z,100.00
2022-11-29T20:24:01.644Z,100.00
2022-11-29T20:26:31.327Z,100.00
2022-11-29T20:28:59.836Z,100.00
2022-11-29T20:31:27.123Z,100.00
2022-11-29T20:33:57.720Z,100.00
2022-11-29T20:36:49.537Z,100.00
2022-11-29T20:39:58.936Z,100.00
2022-11-29T20:42:46.681Z,100.00
2022-11-29T20:45:15.152Z,100.00
2022-11-29T20:47:56.924Z,100.00
2022-11-29T20:50:27.396Z,100.00
2022-11-29T20:53:51.815Z,100.00
2022-11-29T20:56:19.004Z,100.00
2022-11-29T20:58:46.675Z,100.00
2022-11-29T21:01:17.697Z,100.00
2022-11-29T21:03:45.498Z,100.00
2022-11-29T21:06:12.972Z,100.00
2022-11-29T21:08:40.585Z,100.00
2022-11-29T21:11:10.639Z,100.00
2022-11-29T21:13:39.531Z,100.00
2022-11-29T21:16:07.310Z,100.00
2022-11-29T21:18:35.059Z,100.00
2022-11-29T21:21:06.310Z,100.00
2022-11-29T21:23:59.428Z,100.00
2022-11-29T21:26:29.783Z,100.00
2022-11-29T21:29:22.690Z,100.00
2022-11-29T21:31:53.226Z,100.00
2022-11-29T21:34:21.818Z,100.00
2022-11-29T21:36:56.012Z,100.00
2022-11-29T21:39:28.115Z,100.00
2022-11-29T21:41:55.409Z,100.00
2022-11-29T21:44:22.758Z,100.00
2022-11-29T21:46:50.108Z,100.00
2022-11-29T21:49:17.487Z,100.00
2022-11-29T21:51:44.662Z,100.00
2022-11-29T21:54:11.963Z,100.00
2022-11-29T21:56:39.060Z,100.00
2022-11-29T21:59:06.214Z,100.00
2022-11-29T22:01:34.149Z,100.00
2022-11-29T22:04:01.562Z,100.00
2022-11-29T22:06:29.658Z,100.00
2022-11-29T22:08:57.332Z,100.00
2022-11-29T22:11:31.310Z,100.00
2022-11-29T22:14:15.317Z,100.00
2022-11-29T22:16:56.490Z,100.00
2022-11-29T22:19:26.249Z,100.00
2022-11-29T22:22:01.498Z,100.00
2022-11-29T22:24:31.585Z,100.00
2022-11-29T22:26:58.989Z,100.00
2022-11-29T22:29:26.207Z,100.00
2022-11-29T22:31:55.848Z,100.00
2022-11-29T22:34:25.402Z,100.00
2022-11-29T22:36:52.777Z,100.00
2022-11-29T22:39:20.108Z,100.00
2022-11-29T22:41:52.440Z,100.00
2022-11-29T22:44:21.364Z,100.00
2022-11-29T22:46:48.578Z,100.00
2022-11-29T22:49:16.062Z,100.00
2022-11-29T22:51:43.913Z,100.00
2022-11-29T22:54:18.385Z,100.00
2022-11-29T22:56:46.591Z,100.00
2022-11-29T22:59:14.391Z,100.00
2022-11-29T23:01:42.654Z,100.00
2022-11-29T23:04:11.477Z,100.00
2022-11-29T23:06:43.949Z,100.00
2022-11-29T23:09:21.519Z,100.00
2022-11-29T23:11:56.467Z,100.00
2022-11-29T23:14:24.184Z,100.00
2022-11-29T23:16:51.829Z,100.00
2022-11-29T23:19:19.220Z,100.00
2022-11-29T23:21:46.618Z,100.00
2022-11-29T23:24:15.486Z,100.00
2022-11-29T23:26:45.619Z,100.00
2022-11-29T23:29:15.574Z,100.00
2022-11-29T23:31:43.353Z,100.00
2022-11-29T23:34:10.546Z,100.00
2022-11-29T23:36:37.804Z,100.00
2022-11-29T23:39:08.022Z,100.00
2022-11-29T23:41:36.898Z,100.00
2022-11-29T23:44:05.379Z,100.00
2022-11-29T23:46:33.383Z,100.00
2022-11-29T23:49:00.554Z,100.00
2022-11-29T23:51:27.853Z,100.00
2022-11-29T23:53:55.299Z,100.00
2022-11-29T23:56:22.880Z,100.00
2022-11-29T23:58:50.523Z,100.00
